Nearby METAR Reports

 

EGQL - Leuchars Raf, United Kingdom
Distance from station: SW 11mi, 17km
Updated: 21/07/2018 00:50
Mostly cloudy
Mostly cloudy
 Wind from W
Wind: W 2 mph , 4 km/h
Temperature: 14°C
Dew Point: 14°C
Humidity: 100%
Barometer: 1012 hPa
Clouds: Mostly cloudy
Visibility: 6 miles , 10 km
Cloud details: Few Clouds 1097 m
Mostly cloudy 1402 m
2018/07/20 23:50 EGQL 202350Z 27002KT 9999 FEW036 BKN046 14/14 Q1012 BLU
EGPN - Dundee/Riverside, United Kingdom
Distance from station: WSW 13mi, 20km
Updated: 20/07/2018 20:20
NOT Current
Partly cloudy
Partly cloudy
 Wind from S
Wind: S 5 mph , 7 km/h
Temperature: 19°C
Dew Point: 17°C
Humidity: 88%
Barometer: 1011 hPa
Clouds: Partly cloudy
Visibility: 6 miles , 10 km
Cloud details: Few Clouds 549 m
Partly cloudy 1158 m
2018/07/20 19:20 EGPN 201920Z 19004KT 9999 FEW018 SCT038 19/17 Q1011
 
EGPH - Edinburgh Airpor, United Kingdom
Distance from station: SSW 46mi, 74km
Updated: 21/07/2018 00:50
Clear
Clear
 Wind from W
Wind: W 6 mph , 9 km/h
Temperature: 15°C
Dew Point: 15°C
Humidity: 100%
Barometer: 1012 hPa
Summary: Clear
Visibility: greater than 7 miles , 10 km
2018/07/20 23:50 EGPH 202350Z 27005KT CAVOK 15/15 Q1012
EGPD - Aberdeen/Dyce, United Kingdom
Distance from station: NNE 51mi, 82km
Updated: 21/07/2018 00:50
Overcast
Overcast
 Wind from NNW
Wind: NNW 7 mph , 11 km/h
Temperature: 16°C
Dew Point: 14°C
Humidity: 88%
Barometer: 1012 hPa
Clouds: Overcast
Visibility: 6 miles , 10 km
Cloud details: Few Clouds 518 m
Mostly cloudy 1189 m
Overcast 1372 m
2018/07/20 23:50 EGPD 202350Z AUTO 34006KT 9999 FEW017 BKN039 OVC045 16/14 Q1012